sensor_id;sensor_type;location;lat;lon;timestamp;P1;durP1;ratioP1;P2;durP2;ratioP2
15905;SDS011;8051;50.820;4.884;2022-09-03T00:00:39;618.40;;;584.87;;
15905;SDS011;8051;50.820;4.884;2022-09-03T00:03:11;538.70;;;511.00;;
15905;SDS011;8051;50.820;4.884;2022-09-03T00:05:45;483.83;;;459.37;;
15905;SDS011;8051;50.820;4.884;2022-09-03T00:08:17;343.23;;;325.87;;
15905;SDS011;8051;50.820;4.884;2022-09-03T00:10:50;329.90;;;313.77;;
15905;SDS011;8051;50.820;4.884;2022-09-03T00:13:21;357.83;;;339.30;;
15905;SDS011;8051;50.820;4.884;2022-09-03T00:15:52;351.57;;;334.70;;
15905;SDS011;8051;50.820;4.884;2022-09-03T00:18:24;330.80;;;314.13;;
15905;SDS011;8051;50.820;4.884;2022-09-03T00:20:55;355.40;;;338.47;;
15905;SDS011;8051;50.820;4.884;2022-09-03T00:23:32;379.27;;;360.73;;
15905;SDS011;8051;50.820;4.884;2022-09-03T00:26:13;364.40;;;346.53;;
15905;SDS011;8051;50.820;4.884;2022-09-03T00:28:48;400.50;;;381.60;;
15905;SDS011;8051;50.820;4.884;2022-09-03T00:31:21;390.90;;;372.37;;
15905;SDS011;8051;50.820;4.884;2022-09-03T00:33:53;403.80;;;383.63;;
15905;SDS011;8051;50.820;4.884;2022-09-03T00:36:24;402.80;;;383.03;;
15905;SDS011;8051;50.820;4.884;2022-09-03T00:38:59;408.83;;;388.80;;
15905;SDS011;8051;50.820;4.884;2022-09-03T00:41:28;390.37;;;370.07;;
15905;SDS011;8051;50.820;4.884;2022-09-03T00:44:13;395.10;;;376.23;;
15905;SDS011;8051;50.820;4.884;2022-09-03T00:46:56;383.10;;;365.00;;
15905;SDS011;8051;50.820;4.884;2022-09-03T00:49:35;333.83;;;317.77;;
15905;SDS011;8051;50.820;4.884;2022-09-03T00:52:21;350.90;;;334.97;;
15905;SDS011;8051;50.820;4.884;2022-09-03T00:55:02;347.03;;;329.90;;
15905;SDS011;8051;50.820;4.884;2022-09-03T00:57:40;351.47;;;333.60;;
15905;SDS011;8051;50.820;4.884;2022-09-03T01:00:17;397.70;;;376.27;;
15905;SDS011;8051;50.820;4.884;2022-09-03T01:02:49;348.87;;;330.97;;
15905;SDS011;8051;50.820;4.884;2022-09-03T01:05:29;312.63;;;296.60;;
15905;SDS011;8051;50.820;4.884;2022-09-03T01:08:10;312.80;;;296.93;;
15905;SDS011;8051;50.820;4.884;2022-09-03T01:10:49;329.70;;;312.37;;
15905;SDS011;8051;50.820;4.884;2022-09-03T01:13:22;310.33;;;294.60;;
15905;SDS011;8051;50.820;4.884;2022-09-03T01:15:56;320.50;;;304.47;;
15905;SDS011;8051;50.820;4.884;2022-09-03T01:18:34;303.00;;;288.17;;
15905;SDS011;8051;50.820;4.884;2022-09-03T01:21:37;322.17;;;305.47;;
15905;SDS011;8051;50.820;4.884;2022-09-03T01:27:20;351.13;;;333.83;;
15905;SDS011;8051;50.820;4.884;2022-09-03T01:30:00;332.80;;;315.23;;
15905;SDS011;8051;50.820;4.884;2022-09-03T01:32:31;307.60;;;292.07;;
15905;SDS011;8051;50.820;4.884;2022-09-03T01:35:08;297.87;;;282.90;;
15905;SDS011;8051;50.820;4.884;2022-09-03T01:37:49;315.93;;;299.40;;
15905;SDS011;8051;50.820;4.884;2022-09-03T01:40:29;297.70;;;283.23;;
15905;SDS011;8051;50.820;4.884;2022-09-03T01:43:09;308.30;;;293.00;;
15905;SDS011;8051;50.820;4.884;2022-09-03T01:45:52;282.07;;;268.67;;
15905;SDS011;8051;50.820;4.884;2022-09-03T01:48:31;275.30;;;261.73;;
15905;SDS011;8051;50.820;4.884;2022-09-03T01:51:10;271.23;;;257.73;;
15905;SDS011;8051;50.820;4.884;2022-09-03T01:53:50;314.40;;;299.10;;
15905;SDS011;8051;50.820;4.884;2022-09-03T01:56:34;320.63;;;305.17;;
15905;SDS011;8051;50.820;4.884;2022-09-03T01:59:14;309.83;;;294.23;;
15905;SDS011;8051;50.820;4.884;2022-09-03T02:01:51;339.07;;;322.30;;
15905;SDS011;8051;50.820;4.884;2022-09-03T02:04:23;334.33;;;318.70;;
15905;SDS011;8051;50.820;4.884;2022-09-03T02:06:52;308.93;;;293.80;;
15905;SDS011;8051;50.820;4.884;2022-09-03T02:09:21;308.17;;;292.97;;
15905;SDS011;8051;50.820;4.884;2022-09-03T02:11:49;325.50;;;309.73;;
15905;SDS011;8051;50.820;4.884;2022-09-03T02:14:21;311.17;;;296.70;;
15905;SDS011;8051;50.820;4.884;2022-09-03T02:16:49;314.30;;;298.70;;
15905;SDS011;8051;50.820;4.884;2022-09-03T02:19:18;311.93;;;296.30;;
15905;SDS011;8051;50.820;4.884;2022-09-03T02:21:46;339.47;;;322.73;;
15905;SDS011;8051;50.820;4.884;2022-09-03T02:24:16;321.93;;;306.57;;
15905;SDS011;8051;50.820;4.884;2022-09-03T02:26:43;350.37;;;333.57;;
15905;SDS011;8051;50.820;4.884;2022-09-03T02:29:11;321.40;;;305.67;;
15905;SDS011;8051;50.820;4.884;2022-09-03T02:31:39;320.13;;;303.90;;
15905;SDS011;8051;50.820;4.884;2022-09-03T02:34:07;328.23;;;312.57;;
15905;SDS011;8051;50.820;4.884;2022-09-03T02:36:35;325.43;;;309.70;;
15905;SDS011;8051;50.820;4.884;2022-09-03T02:39:04;361.03;;;343.67;;
15905;SDS011;8051;50.820;4.884;2022-09-03T02:41:33;388.37;;;369.10;;
15905;SDS011;8051;50.820;4.884;2022-09-03T02:44:01;365.13;;;348.03;;
15905;SDS011;8051;50.820;4.884;2022-09-03T02:46:32;373.30;;;355.60;;
15905;SDS011;8051;50.820;4.884;2022-09-03T02:49:01;333.83;;;318.37;;
15905;SDS011;8051;50.820;4.884;2022-09-03T02:51:32;326.57;;;310.73;;
15905;SDS011;8051;50.820;4.884;2022-09-03T02:54:00;323.73;;;308.00;;
15905;SDS011;8051;50.820;4.884;2022-09-03T02:56:27;341.07;;;324.73;;
15905;SDS011;8051;50.820;4.884;2022-09-03T02:58:54;353.87;;;337.30;;
15905;SDS011;8051;50.820;4.884;2022-09-03T03:01:21;343.50;;;326.30;;
15905;SDS011;8051;50.820;4.884;2022-09-03T03:03:48;266.80;;;253.37;;
15905;SDS011;8051;50.820;4.884;2022-09-03T03:06:15;313.53;;;298.60;;
15905;SDS011;8051;50.820;4.884;2022-09-03T03:08:46;330.17;;;314.30;;
15905;SDS011;8051;50.820;4.884;2022-09-03T03:11:14;256.77;;;243.90;;
15905;SDS011;8051;50.820;4.884;2022-09-03T03:13:42;255.47;;;242.13;;
15905;SDS011;8051;50.820;4.884;2022-09-03T03:16:11;283.53;;;269.00;;
15905;SDS011;8051;50.820;4.884;2022-09-03T03:18:38;200.80;;;190.27;;
15905;SDS011;8051;50.820;4.884;2022-09-03T03:21:05;220.53;;;209.10;;
15905;SDS011;8051;50.820;4.884;2022-09-03T03:23:34;233.10;;;220.63;;
15905;SDS011;8051;50.820;4.884;2022-09-03T03:26:03;176.97;;;167.20;;
15905;SDS011;8051;50.820;4.884;2022-09-03T03:28:31;197.37;;;186.57;;
15905;SDS011;8051;50.820;4.884;2022-09-03T03:30:58;205.60;;;194.60;;
15905;SDS011;8051;50.820;4.884;2022-09-03T03:33:31;198.63;;;187.80;;
15905;SDS011;8051;50.820;4.884;2022-09-03T03:36:02;216.10;;;203.90;;
15905;SDS011;8051;50.820;4.884;2022-09-03T03:38:29;220.30;;;207.60;;
15905;SDS011;8051;50.820;4.884;2022-09-03T03:40:56;218.33;;;206.33;;
15905;SDS011;8051;50.820;4.884;2022-09-03T03:43:24;232.93;;;220.80;;
15905;SDS011;8051;50.820;4.884;2022-09-03T03:45:55;288.13;;;273.63;;
15905;SDS011;8051;50.820;4.884;2022-09-03T03:48:22;268.00;;;254.33;;
15905;SDS011;8051;50.820;4.884;2022-09-03T03:50:49;302.80;;;286.67;;
15905;SDS011;8051;50.820;4.884;2022-09-03T03:53:16;291.30;;;275.97;;
15905;SDS011;8051;50.820;4.884;2022-09-03T03:55:48;295.13;;;280.23;;
15905;SDS011;8051;50.820;4.884;2022-09-03T03:58:20;296.43;;;281.27;;
15905;SDS011;8051;50.820;4.884;2022-09-03T04:00:48;330.93;;;313.93;;
15905;SDS011;8051;50.820;4.884;2022-09-03T04:03:15;372.03;;;353.70;;
15905;SDS011;8051;50.820;4.884;2022-09-03T04:05:42;512.33;;;485.40;;
15905;SDS011;8051;50.820;4.884;2022-09-03T04:08:09;561.10;;;530.67;;
15905;SDS011;8051;50.820;4.884;2022-09-03T04:10:37;613.33;;;580.00;;
15905;SDS011;8051;50.820;4.884;2022-09-03T04:13:04;462.30;;;438.67;;
15905;SDS011;8051;50.820;4.884;2022-09-03T04:15:31;535.33;;;507.57;;
15905;SDS011;8051;50.820;4.884;2022-09-03T04:17:59;369.53;;;350.80;;
15905;SDS011;8051;50.820;4.884;2022-09-03T04:20:26;322.97;;;305.90;;
15905;SDS011;8051;50.820;4.884;2022-09-03T04:22:53;386.90;;;367.93;;
15905;SDS011;8051;50.820;4.884;2022-09-03T04:25:19;379.27;;;360.10;;
15905;SDS011;8051;50.820;4.884;2022-09-03T04:27:46;394.47;;;375.07;;
15905;SDS011;8051;50.820;4.884;2022-09-03T04:30:13;427.93;;;406.80;;
15905;SDS011;8051;50.820;4.884;2022-09-03T04:32:40;458.63;;;435.27;;
15905;SDS011;8051;50.820;4.884;2022-09-03T04:35:22;360.87;;;342.97;;
15905;SDS011;8051;50.820;4.884;2022-09-03T04:37:50;283.13;;;268.63;;
15905;SDS011;8051;50.820;4.884;2022-09-03T04:40:19;332.43;;;317.13;;
15905;SDS011;8051;50.820;4.884;2022-09-03T04:42:46;344.90;;;328.60;;
15905;SDS011;8051;50.820;4.884;2022-09-03T04:45:14;362.30;;;344.37;;
15905;SDS011;8051;50.820;4.884;2022-09-03T04:47:42;326.83;;;311.07;;
15905;SDS011;8051;50.820;4.884;2022-09-03T04:50:11;390.00;;;368.90;;
15905;SDS011;8051;50.820;4.884;2022-09-03T04:52:39;364.00;;;344.80;;
15905;SDS011;8051;50.820;4.884;2022-09-03T04:55:06;378.37;;;359.07;;
15905;SDS011;8051;50.820;4.884;2022-09-03T04:57:34;415.70;;;394.70;;
15905;SDS011;8051;50.820;4.884;2022-09-03T05:00:02;306.90;;;291.77;;
15905;SDS011;8051;50.820;4.884;2022-09-03T05:02:31;250.63;;;237.90;;
15905;SDS011;8051;50.820;4.884;2022-09-03T05:04:58;228.63;;;216.30;;
15905;SDS011;8051;50.820;4.884;2022-09-03T05:07:25;288.07;;;272.73;;
15905;SDS011;8051;50.820;4.884;2022-09-03T05:09:54;307.87;;;291.87;;
15905;SDS011;8051;50.820;4.884;2022-09-03T05:12:22;307.93;;;292.43;;
15905;SDS011;8051;50.820;4.884;2022-09-03T05:14:49;321.53;;;305.50;;
15905;SDS011;8051;50.820;4.884;2022-09-03T05:17:16;305.87;;;289.67;;
15905;SDS011;8051;50.820;4.884;2022-09-03T05:19:43;253.70;;;240.67;;
15905;SDS011;8051;50.820;4.884;2022-09-03T05:22:10;245.70;;;233.27;;
15905;SDS011;8051;50.820;4.884;2022-09-03T05:24:37;202.60;;;191.57;;
15905;SDS011;8051;50.820;4.884;2022-09-03T05:27:05;233.33;;;221.07;;
15905;SDS011;8051;50.820;4.884;2022-09-03T05:29:32;266.83;;;253.20;;
15905;SDS011;8051;50.820;4.884;2022-09-03T05:31:59;287.40;;;271.30;;
15905;SDS011;8051;50.820;4.884;2022-09-03T05:34:26;284.87;;;270.37;;
15905;SDS011;8051;50.820;4.884;2022-09-03T05:36:53;261.97;;;248.07;;
15905;SDS011;8051;50.820;4.884;2022-09-03T05:39:20;288.30;;;273.37;;
15905;SDS011;8051;50.820;4.884;2022-09-03T05:41:47;221.60;;;209.67;;
15905;SDS011;8051;50.820;4.884;2022-09-03T05:44:16;258.60;;;245.20;;
15905;SDS011;8051;50.820;4.884;2022-09-03T05:46:42;247.17;;;232.40;;
15905;SDS011;8051;50.820;4.884;2022-09-03T05:49:09;279.17;;;265.20;;
15905;SDS011;8051;50.820;4.884;2022-09-03T05:51:36;214.07;;;202.53;;
15905;SDS011;8051;50.820;4.884;2022-09-03T05:54:04;219.37;;;207.03;;
15905;SDS011;8051;50.820;4.884;2022-09-03T05:56:32;228.30;;;216.87;;
15905;SDS011;8051;50.820;4.884;2022-09-03T05:59:00;183.83;;;173.70;;
15905;SDS011;8051;50.820;4.884;2022-09-03T06:01:32;200.77;;;190.43;;
15905;SDS011;8051;50.820;4.884;2022-09-03T06:04:01;216.13;;;203.73;;
15905;SDS011;8051;50.820;4.884;2022-09-03T06:06:29;185.60;;;175.27;;
15905;SDS011;8051;50.820;4.884;2022-09-03T06:08:58;198.60;;;187.80;;
15905;SDS011;8051;50.820;4.884;2022-09-03T06:11:27;159.63;;;150.20;;
15905;SDS011;8051;50.820;4.884;2022-09-03T06:13:57;155.43;;;146.20;;
15905;SDS011;8051;50.820;4.884;2022-09-03T06:16:25;175.83;;;165.33;;
15905;SDS011;8051;50.820;4.884;2022-09-03T06:18:54;162.17;;;152.33;;
15905;SDS011;8051;50.820;4.884;2022-09-03T06:21:21;166.57;;;156.40;;
15905;SDS011;8051;50.820;4.884;2022-09-03T06:23:48;180.80;;;170.23;;
15905;SDS011;8051;50.820;4.884;2022-09-03T06:26:17;179.97;;;168.57;;
15905;SDS011;8051;50.820;4.884;2022-09-03T06:28:45;178.80;;;167.93;;
15905;SDS011;8051;50.820;4.884;2022-09-03T06:31:13;166.80;;;155.53;;
15905;SDS011;8051;50.820;4.884;2022-09-03T06:33:41;161.47;;;150.37;;
15905;SDS011;8051;50.820;4.884;2022-09-03T06:36:10;173.63;;;161.53;;
15905;SDS011;8051;50.820;4.884;2022-09-03T06:38:39;169.37;;;158.30;;
15905;SDS011;8051;50.820;4.884;2022-09-03T06:41:07;156.50;;;146.87;;
15905;SDS011;8051;50.820;4.884;2022-09-03T06:43:36;186.50;;;174.73;;
15905;SDS011;8051;50.820;4.884;2022-09-03T06:46:05;186.43;;;174.73;;
15905;SDS011;8051;50.820;4.884;2022-09-03T06:48:34;163.57;;;153.37;;
15905;SDS011;8051;50.820;4.884;2022-09-03T06:51:02;151.93;;;141.63;;
15905;SDS011;8051;50.820;4.884;2022-09-03T06:53:32;146.53;;;136.83;;
15905;SDS011;8051;50.820;4.884;2022-09-03T06:56:00;140.67;;;129.60;;
15905;SDS011;8051;50.820;4.884;2022-09-03T06:58:29;147.03;;;136.97;;
15905;SDS011;8051;50.820;4.884;2022-09-03T07:01:00;151.87;;;141.90;;
15905;SDS011;8051;50.820;4.884;2022-09-03T07:03:27;180.37;;;169.20;;
15905;SDS011;8051;50.820;4.884;2022-09-03T07:05:58;168.60;;;156.80;;
15905;SDS011;8051;50.820;4.884;2022-09-03T07:08:26;159.83;;;148.97;;
15905;SDS011;8051;50.820;4.884;2022-09-03T07:10:55;190.30;;;177.90;;
15905;SDS011;8051;50.820;4.884;2022-09-03T07:13:22;186.37;;;174.07;;
15905;SDS011;8051;50.820;4.884;2022-09-03T07:15:56;159.77;;;149.27;;
15905;SDS011;8051;50.820;4.884;2022-09-03T07:18:25;159.20;;;148.60;;
15905;SDS011;8051;50.820;4.884;2022-09-03T07:20:51;170.30;;;158.23;;
15905;SDS011;8051;50.820;4.884;2022-09-03T07:23:23;164.43;;;153.70;;
15905;SDS011;8051;50.820;4.884;2022-09-03T07:25:51;155.57;;;145.37;;
15905;SDS011;8051;50.820;4.884;2022-09-03T07:28:21;166.77;;;156.50;;
15905;SDS011;8051;50.820;4.884;2022-09-03T07:30:49;190.57;;;179.23;;
15905;SDS011;8051;50.820;4.884;2022-09-03T07:33:16;170.53;;;160.23;;
15905;SDS011;8051;50.820;4.884;2022-09-03T07:35:44;170.60;;;159.13;;
15905;SDS011;8051;50.820;4.884;2022-09-03T07:38:11;154.17;;;144.93;;
15905;SDS011;8051;50.820;4.884;2022-09-03T07:40:43;133.03;;;124.37;;
15905;SDS011;8051;50.820;4.884;2022-09-03T07:43:11;177.13;;;166.27;;
15905;SDS011;8051;50.820;4.884;2022-09-03T07:45:39;189.57;;;178.77;;
15905;SDS011;8051;50.820;4.884;2022-09-03T07:48:09;151.50;;;141.83;;
15905;SDS011;8051;50.820;4.884;2022-09-03T07:50:36;160.43;;;150.37;;
15905;SDS011;8051;50.820;4.884;2022-09-03T07:53:04;129.07;;;121.43;;
15905;SDS011;8051;50.820;4.884;2022-09-03T07:55:32;133.97;;;123.77;;
15905;SDS011;8051;50.820;4.884;2022-09-03T07:57:59;116.83;;;108.53;;
15905;SDS011;8051;50.820;4.884;2022-09-03T08:00:26;144.70;;;135.40;;
15905;SDS011;8051;50.820;4.884;2022-09-03T08:02:54;133.57;;;123.80;;
15905;SDS011;8051;50.820;4.884;2022-09-03T08:05:23;62.10;;;56.37;;
15905;SDS011;8051;50.820;4.884;2022-09-03T08:07:50;97.17;;;90.47;;
15905;SDS011;8051;50.820;4.884;2022-09-03T08:10:17;70.17;;;64.47;;
15905;SDS011;8051;50.820;4.884;2022-09-03T08:12:46;94.20;;;87.43;;
15905;SDS011;8051;50.820;4.884;2022-09-03T08:15:13;104.30;;;97.43;;
15905;SDS011;8051;50.820;4.884;2022-09-03T08:17:42;131.17;;;122.90;;
15905;SDS011;8051;50.820;4.884;2022-09-03T08:20:12;90.20;;;83.93;;
15905;SDS011;8051;50.820;4.884;2022-09-03T08:22:38;74.00;;;67.70;;
15905;SDS011;8051;50.820;4.884;2022-09-03T08:25:05;42.97;;;39.33;;
15905;SDS011;8051;50.820;4.884;2022-09-03T08:27:33;54.67;;;50.60;;
15905;SDS011;8051;50.820;4.884;2022-09-03T08:29:59;50.03;;;45.83;;
15905;SDS011;8051;50.820;4.884;2022-09-03T08:32:28;98.37;;;91.23;;
15905;SDS011;8051;50.820;4.884;2022-09-03T08:34:55;81.37;;;74.87;;
15905;SDS011;8051;50.820;4.884;2022-09-03T08:37:24;55.73;;;51.17;;
15905;SDS011;8051;50.820;4.884;2022-09-03T08:39:53;114.73;;;106.90;;
15905;SDS011;8051;50.820;4.884;2022-09-03T08:42:24;82.17;;;75.90;;
15905;SDS011;8051;50.820;4.884;2022-09-03T08:45:01;76.20;;;71.50;;
15905;SDS011;8051;50.820;4.884;2022-09-03T08:47:32;79.27;;;73.70;;
15905;SDS011;8051;50.820;4.884;2022-09-03T08:50:03;99.67;;;93.20;;
15905;SDS011;8051;50.820;4.884;2022-09-03T08:52:37;115.73;;;108.60;;
15905;SDS011;8051;50.820;4.884;2022-09-03T08:55:15;127.67;;;119.70;;
15905;SDS011;8051;50.820;4.884;2022-09-03T08:57:46;164.93;;;155.27;;
15905;SDS011;8051;50.820;4.884;2022-09-03T09:00:16;132.77;;;124.27;;
15905;SDS011;8051;50.820;4.884;2022-09-03T09:02:47;131.97;;;124.93;;
15905;SDS011;8051;50.820;4.884;2022-09-03T09:05:31;259.17;;;242.93;;
15905;SDS011;8051;50.820;4.884;2022-09-03T09:08:11;116.03;;;109.40;;
15905;SDS011;8051;50.820;4.884;2022-09-03T09:10:46;82.53;;;77.03;;
15905;SDS011;8051;50.820;4.884;2022-09-03T09:13:17;75.97;;;70.93;;
15905;SDS011;8051;50.820;4.884;2022-09-03T09:15:52;69.23;;;63.33;;
15905;SDS011;8051;50.820;4.884;2022-09-03T09:18:27;47.70;;;44.13;;
15905;SDS011;8051;50.820;4.884;2022-09-03T09:21:06;146.80;;;136.37;;
15905;SDS011;8051;50.820;4.884;2022-09-03T09:23:41;79.33;;;73.73;;
15905;SDS011;8051;50.820;4.884;2022-09-03T09:26:11;72.70;;;67.80;;
15905;SDS011;8051;50.820;4.884;2022-09-03T09:28:41;94.63;;;88.93;;
15905;SDS011;8051;50.820;4.884;2022-09-03T09:31:11;48.67;;;45.20;;
15905;SDS011;8051;50.820;4.884;2022-09-03T09:33:42;59.43;;;55.37;;
15905;SDS011;8051;50.820;4.884;2022-09-03T09:36:10;49.10;;;45.53;;
15905;SDS011;8051;50.820;4.884;2022-09-03T09:38:42;46.40;;;42.83;;
15905;SDS011;8051;50.820;4.884;2022-09-03T09:41:11;40.17;;;36.77;;
15905;SDS011;8051;50.820;4.884;2022-09-03T09:43:40;445.83;;;409.30;;
15905;SDS011;8051;50.820;4.884;2022-09-03T09:46:08;388.27;;;355.83;;
15905;SDS011;8051;50.820;4.884;2022-09-03T09:48:43;76.00;;;71.23;;
15905;SDS011;8051;50.820;4.884;2022-09-03T09:51:17;97.03;;;90.80;;
15905;SDS011;8051;50.820;4.884;2022-09-03T09:53:47;284.60;;;264.87;;
15905;SDS011;8051;50.820;4.884;2022-09-03T09:56:25;39.43;;;36.63;;
15905;SDS011;8051;50.820;4.884;2022-09-03T09:59:00;61.20;;;56.50;;
15905;SDS011;8051;50.820;4.884;2022-09-03T10:01:28;44.40;;;41.13;;
15905;SDS011;8051;50.820;4.884;2022-09-03T10:03:56;51.97;;;47.67;;
15905;SDS011;8051;50.820;4.884;2022-09-03T10:06:24;48.17;;;44.03;;
15905;SDS011;8051;50.820;4.884;2022-09-03T10:09:14;50.20;;;46.70;;
15905;SDS011;8051;50.820;4.884;2022-09-03T10:11:42;48.93;;;44.73;;
15905;SDS011;8051;50.820;4.884;2022-09-03T10:14:14;52.47;;;48.57;;
15905;SDS011;8051;50.820;4.884;2022-09-03T10:16:47;47.33;;;43.90;;
15905;SDS011;8051;50.820;4.884;2022-09-03T10:19:19;40.93;;;37.80;;
15905;SDS011;8051;50.820;4.884;2022-09-03T10:22:00;41.40;;;38.67;;
15905;SDS011;8051;50.820;4.884;2022-09-03T10:24:35;41.80;;;38.83;;
15905;SDS011;8051;50.820;4.884;2022-09-03T10:27:13;49.03;;;44.57;;
15905;SDS011;8051;50.820;4.884;2022-09-03T10:29:42;284.43;;;264.13;;
15905;SDS011;8051;50.820;4.884;2022-09-03T10:32:13;60.10;;;56.40;;
15905;SDS011;8051;50.820;4.884;2022-09-03T10:34:49;342.60;;;314.47;;
15905;SDS011;8051;50.820;4.884;2022-09-03T10:37:28;33.17;;;30.40;;
15905;SDS011;8051;50.820;4.884;2022-09-03T10:40:09;35.17;;;32.57;;
15905;SDS011;8051;50.820;4.884;2022-09-03T10:42:43;47.80;;;44.90;;
15905;SDS011;8051;50.820;4.884;2022-09-03T10:45:17;92.10;;;86.47;;
15905;SDS011;8051;50.820;4.884;2022-09-03T10:47:56;97.37;;;91.07;;
15905;SDS011;8051;50.820;4.884;2022-09-03T10:50:33;50.23;;;46.93;;
15905;SDS011;8051;50.820;4.884;2022-09-03T10:53:09;71.57;;;66.27;;
15905;SDS011;8051;50.820;4.884;2022-09-03T10:55:44;62.87;;;58.47;;
15905;SDS011;8051;50.820;4.884;2022-09-03T10:58:23;52.47;;;48.90;;
15905;SDS011;8051;50.820;4.884;2022-09-03T11:01:03;54.93;;;51.13;;
15905;SDS011;8051;50.820;4.884;2022-09-03T11:03:43;52.37;;;49.00;;
15905;SDS011;8051;50.820;4.884;2022-09-03T11:06:14;52.97;;;49.37;;
15905;SDS011;8051;50.820;4.884;2022-09-03T11:08:47;52.20;;;48.53;;
15905;SDS011;8051;50.820;4.884;2022-09-03T11:11:22;45.90;;;42.70;;
15905;SDS011;8051;50.820;4.884;2022-09-03T11:13:53;53.40;;;50.00;;
15905;SDS011;8051;50.820;4.884;2022-09-03T11:16:25;56.57;;;52.60;;
15905;SDS011;8051;50.820;4.884;2022-09-03T11:18:59;53.43;;;49.80;;
15905;SDS011;8051;50.820;4.884;2022-09-03T11:21:29;58.30;;;54.80;;
15905;SDS011;8051;50.820;4.884;2022-09-03T11:24:00;52.23;;;49.00;;
15905;SDS011;8051;50.820;4.884;2022-09-03T11:26:37;43.80;;;41.20;;
15905;SDS011;8051;50.820;4.884;2022-09-03T11:29:06;43.80;;;40.53;;
15905;SDS011;8051;50.820;4.884;2022-09-03T11:31:41;47.23;;;43.97;;
15905;SDS011;8051;50.820;4.884;2022-09-03T11:34:25;63.73;;;59.40;;
15905;SDS011;8051;50.820;4.884;2022-09-03T11:37:03;44.73;;;41.63;;
15905;SDS011;8051;50.820;4.884;2022-09-03T11:39:33;41.57;;;38.80;;
15905;SDS011;8051;50.820;4.884;2022-09-03T11:42:04;55.37;;;51.03;;
15905;SDS011;8051;50.820;4.884;2022-09-03T11:44:36;94.47;;;88.17;;
15905;SDS011;8051;50.820;4.884;2022-09-03T11:47:12;55.07;;;51.23;;
15905;SDS011;8051;50.820;4.884;2022-09-03T11:49:43;80.90;;;75.47;;
15905;SDS011;8051;50.820;4.884;2022-09-03T11:52:23;44.00;;;40.57;;
15905;SDS011;8051;50.820;4.884;2022-09-03T11:54:51;56.27;;;52.53;;
15905;SDS011;8051;50.820;4.884;2022-09-03T11:57:22;49.10;;;45.27;;
15905;SDS011;8051;50.820;4.884;2022-09-03T11:59:53;70.43;;;65.23;;
15905;SDS011;8051;50.820;4.884;2022-09-03T12:02:33;47.80;;;44.03;;
15905;SDS011;8051;50.820;4.884;2022-09-03T12:05:13;62.33;;;57.83;;
15905;SDS011;8051;50.820;4.884;2022-09-03T12:08:04;81.03;;;75.53;;
15905;SDS011;8051;50.820;4.884;2022-09-03T12:10:55;91.70;;;85.03;;
15905;SDS011;8051;50.820;4.884;2022-09-03T12:13:43;49.63;;;46.20;;
15905;SDS011;8051;50.820;4.884;2022-09-03T12:16:25;162.80;;;152.17;;
15905;SDS011;8051;50.820;4.884;2022-09-03T12:19:02;440.97;;;405.13;;
15905;SDS011;8051;50.820;4.884;2022-09-03T12:21:36;61.83;;;58.30;;
15905;SDS011;8051;50.820;4.884;2022-09-03T12:24:05;58.20;;;54.00;;
15905;SDS011;8051;50.820;4.884;2022-09-03T12:26:37;42.93;;;39.87;;
15905;SDS011;8051;50.820;4.884;2022-09-03T12:29:16;165.37;;;155.87;;
15905;SDS011;8051;50.820;4.884;2022-09-03T12:31:47;154.70;;;144.20;;
15905;SDS011;8051;50.820;4.884;2022-09-03T12:34:16;192.43;;;179.27;;
15905;SDS011;8051;50.820;4.884;2022-09-03T12:36:44;172.80;;;162.27;;
15905;SDS011;8051;50.820;4.884;2022-09-03T12:39:13;35.63;;;33.17;;
15905;SDS011;8051;50.820;4.884;2022-09-03T12:44:30;41.20;;;38.30;;
15905;SDS011;8051;50.820;4.884;2022-09-03T12:47:02;35.53;;;32.83;;
15905;SDS011;8051;50.820;4.884;2022-09-03T12:49:34;35.60;;;33.43;;
15905;SDS011;8051;50.820;4.884;2022-09-03T12:52:04;33.87;;;31.37;;
15905;SDS011;8051;50.820;4.884;2022-09-03T12:54:35;37.67;;;34.77;;
15905;SDS011;8051;50.820;4.884;2022-09-03T12:57:07;35.17;;;32.70;;
15905;SDS011;8051;50.820;4.884;2022-09-03T12:59:36;43.13;;;39.93;;
15905;SDS011;8051;50.820;4.884;2022-09-03T13:02:05;34.20;;;31.57;;
15905;SDS011;8051;50.820;4.884;2022-09-03T13:04:41;50.70;;;47.03;;
15905;SDS011;8051;50.820;4.884;2022-09-03T13:07:11;31.73;;;29.03;;
15905;SDS011;8051;50.820;4.884;2022-09-03T13:09:45;40.43;;;37.27;;
15905;SDS011;8051;50.820;4.884;2022-09-03T13:12:19;33.93;;;31.23;;
15905;SDS011;8051;50.820;4.884;2022-09-03T13:14:49;58.43;;;54.77;;
15905;SDS011;8051;50.820;4.884;2022-09-03T13:17:23;31.03;;;28.53;;
15905;SDS011;8051;50.820;4.884;2022-09-03T13:20:14;32.73;;;30.53;;
15905;SDS011;8051;50.820;4.884;2022-09-03T13:22:56;26.60;;;24.67;;
15905;SDS011;8051;50.820;4.884;2022-09-03T13:25:35;50.00;;;46.60;;
15905;SDS011;8051;50.820;4.884;2022-09-03T13:28:14;496.63;;;458.23;;
15905;SDS011;8051;50.820;4.884;2022-09-03T13:30:54;149.20;;;138.97;;
15905;SDS011;8051;50.820;4.884;2022-09-03T13:33:27;37.53;;;34.57;;
15905;SDS011;8051;50.820;4.884;2022-09-03T13:35:59;44.60;;;41.67;;
15905;SDS011;8051;50.820;4.884;2022-09-03T13:38:31;38.33;;;35.17;;
15905;SDS011;8051;50.820;4.884;2022-09-03T13:41:05;153.10;;;143.00;;
15905;SDS011;8051;50.820;4.884;2022-09-03T13:43:39;31.90;;;29.10;;
15905;SDS011;8051;50.820;4.884;2022-09-03T13:46:11;46.40;;;43.13;;
15905;SDS011;8051;50.820;4.884;2022-09-03T13:48:43;37.93;;;35.70;;
15905;SDS011;8051;50.820;4.884;2022-09-03T13:51:30;69.10;;;64.93;;
15905;SDS011;8051;50.820;4.884;2022-09-03T13:54:05;33.93;;;31.63;;
15905;SDS011;8051;50.820;4.884;2022-09-03T13:56:48;27.17;;;25.07;;
15905;SDS011;8051;50.820;4.884;2022-09-03T13:59:24;31.87;;;28.83;;
15905;SDS011;8051;50.820;4.884;2022-09-03T14:02:04;28.63;;;26.33;;
15905;SDS011;8051;50.820;4.884;2022-09-03T14:04:41;24.97;;;22.60;;
15905;SDS011;8051;50.820;4.884;2022-09-03T14:07:17;23.03;;;21.13;;
15905;SDS011;8051;50.820;4.884;2022-09-03T14:09:53;23.30;;;21.20;;
15905;SDS011;8051;50.820;4.884;2022-09-03T14:12:29;25.67;;;23.67;;
15905;SDS011;8051;50.820;4.884;2022-09-03T14:15:08;26.57;;;24.20;;
15905;SDS011;8051;50.820;4.884;2022-09-03T14:17:45;28.43;;;26.03;;
15905;SDS011;8051;50.820;4.884;2022-09-03T14:20:18;33.70;;;31.27;;
15905;SDS011;8051;50.820;4.884;2022-09-03T14:22:51;41.10;;;38.40;;
15905;SDS011;8051;50.820;4.884;2022-09-03T14:25:20;31.23;;;28.40;;
15905;SDS011;8051;50.820;4.884;2022-09-03T14:27:48;26.77;;;24.80;;
15905;SDS011;8051;50.820;4.884;2022-09-03T14:30:17;26.57;;;24.37;;
15905;SDS011;8051;50.820;4.884;2022-09-03T14:32:56;35.83;;;33.43;;
15905;SDS011;8051;50.820;4.884;2022-09-03T14:35:37;27.80;;;25.63;;
15905;SDS011;8051;50.820;4.884;2022-09-03T14:41:29;31.17;;;28.87;;
15905;SDS011;8051;50.820;4.884;2022-09-03T14:44:16;27.57;;;25.37;;
15905;SDS011;8051;50.820;4.884;2022-09-03T14:47:02;28.03;;;26.27;;
15905;SDS011;8051;50.820;4.884;2022-09-03T14:49:45;20.93;;;19.37;;
15905;SDS011;8051;50.820;4.884;2022-09-03T14:52:35;25.80;;;23.73;;
15905;SDS011;8051;50.820;4.884;2022-09-03T14:55:21;23.93;;;21.83;;